« 美ら島エアーフェスタ2018【2日目見送編】 那覇空港 2018/12/9 sun | トップページ | 定点 富山空港 2018/12/26 wed »

2018/12/25

見送 那覇空港 2018/12/10 mon

エアーフェスタ翌日は帰投機のお見送り。生憎の強い雨で、眺める程度の記録です。

ROAH 092300Z 06010KT 020V110 3000 RA FEW008 SCT010 BKN035 20/18 Q1020 RMK 1ST008 4CU010 7SC035 A3012

20181210_roah_00ja705a

煙る程の強い雨が降りしきります。

20181210_roah_01ja705a

ANA460 ROAH-RJTT JA705A B777-281

20181210_roah_02f238115

キャーそんなに捻らなくても・・

20181210_roah_03f238115

23-8115 F-2B 6SQ J05

20181210_roah_04m5036

5036 P-3C VP-5 T36 雨が降ろうがパトロール

ROAH 100000Z 06010KT 3500 RA FEW008 SCT010 BKN035 20/18 Q1021 RMK 1ST008 4CU010 7SC035 A3015

20181210_roah_05f078428

07-8428 F-4EJk 302SQ A01 補給処にお立ち寄りの模様

20181210_roah_06ja51an

ANA461 RJTT-ROAH JA51AN B737-881

20181210_roah_07m5044

5044 P-3C VP-5 T44

20181210_roah_08x9vjsn

JSA792 ROAH-WSSS 9V-JSN A320-232

20181210_roah_09t665745

#1 66-5745 T-4 11SQ BI1 天候不良で各単機でのIFRでFZへ

20181210_roah_10t065787

タクシーする向こうに2番機

20181210_roah_11t065787

#2 06-5787 T-4 11SQ BI2

20181210_roah_12b16207

EVA112 RCTP-ROAH B-16207 A321-211

20181210_roah_13t265692

#3 26-5692 T-4 11SQ BI3

ROAH 100030Z 08012KT 6000 +RA FEW008 SCT010 BKN040 20/18 Q1020 RMK 1ST008 3CU010 7SC040 A3014

20181210_roah_14t265686

#4 26-5686 T-4 11SQ BI4

20181210_roah_15ja737x

SKY510 ROAH-RJTT JA737X B737-8AL

時間が迫ったので搭乗ゲートへ向かいます。

20181210_roah_16ja73na

SKY501 RJFF-ROAH JA73NA B737-8HX

20181210_roah_17t065790

#5 06-5790 T-4 11SQ BI5

ROAH 100030Z 08012KT 6000 +RA FEW008 SCT010 BKN040 20/18 Q1020 RMK 1ST008 3CU010 7SC040 A3014

20181210_roah_18ja51an

ANA1202 ROAH-RJFF JA51AN B737-881

20181210_roah_19t265690

20181210_roah_20t265690

#6 26-5690 T-4 11SQ BI6

20181210_roah_21ja8595

ANA1721 ROAH-ROMY JA8595 B737-54K

20181210_roah_22t465731

20181210_roah_23t465731

#7 46-5731 T-4 11SQ BI7

20181210_roah_24ja711a

JA711A スタアラさんに見送られて、バス搭乗です。

20181210_roah_25ja73nl

スカイマークは就航20周年

ROAH 100030Z 08012KT 6000 +RA FEW008 SCT010 BKN040 20/18 Q1020 RMK 1ST008 3CU010 7SC040 A3014

20181210_roah_26rw36

SKY552 ROAH-RJGG JA73NL B737-8HX

20181210_roah_27rw36

沖縄にさようなら、また来るねー

途中道中は、紀伊半島までずっと雲で、明野のみ確保できました。

|

« 美ら島エアーフェスタ2018【2日目見送編】 那覇空港 2018/12/9 sun | トップページ | 定点 富山空港 2018/12/26 wed »

BI」カテゴリの記事

那覇空港」カテゴリの記事

コメント

コメントを書く



(ウェブ上には掲載しません)


コメントは記事投稿者が公開するまで表示されません。



トラックバック


この記事へのトラックバック一覧です: 見送 那覇空港 2018/12/10 mon:

« 美ら島エアーフェスタ2018【2日目見送編】 那覇空港 2018/12/9 sun | トップページ | 定点 富山空港 2018/12/26 wed »